Time;durP1;ratioP1;P1;durP2;ratioP2;P2;SDS_P1;SDS_P2;PMS_P1;PMS_P2;Temp;Humidity;BMP_temperature;BMP_pressure;BME280_temperature;BME280_humidity;BME280_pressure;Samples;Min_cycle;Max_cycle;Signal;HPM_P1;HPM_P2
2024/01/27 00:02:21;;;;;;;20.47;6.37;;;;;;;-0.78;100.00;103006.00;10562736;27;20040;-78
2024/01/27 00:07:22;;;;;;;26.57;6.37;;;;;;;-0.80;100.00;103002.31;10566604;27;20076;-78
2024/01/27 00:12:22;;;;;;;13.87;5.93;;;;;;;-0.93;100.00;102999.81;10558503;27;20048;-78
2024/01/27 00:17:25;;;;;;;22.17;7.60;;;;;;;-0.98;100.00;103006.00;10568884;27;20043;-78
2024/01/27 00:22:25;;;;;;;10.38;5.43;;;;;;;-1.06;100.00;103014.38;10549949;27;20046;-77
2024/01/27 00:27:26;;;;;;;10.80;4.93;;;;;;;-1.06;100.00;103022.09;10554279;27;20510;-79
2024/01/27 00:32:26;;;;;;;9.30;6.23;;;;;;;-1.21;100.00;103036.47;10580530;27;20778;-78
2024/01/27 00:37:27;;;;;;;11.20;6.77;;;;;;;-1.22;100.00;103035.53;10553036;27;20118;-78
2024/01/27 00:42:27;;;;;;;13.57;6.93;;;;;;;-1.30;100.00;103037.84;10587000;27;20226;-78
2024/01/27 00:47:28;;;;;;;15.77;6.23;;;;;;;-1.37;100.00;103037.06;10578581;27;20122;-77
2024/01/27 00:52:28;;;;;;;18.77;7.20;;;;;;;-1.40;100.00;103044.34;10570784;27;20043;-78
2024/01/27 00:57:29;;;;;;;16.60;7.30;;;;;;;-1.51;100.00;103044.59;10579961;27;20130;-78
2024/01/27 01:02:29;;;;;;;10.40;7.20;;;;;;;-1.65;100.00;103053.03;10570632;27;20072;-78
2024/01/27 01:07:30;;;;;;;13.10;6.63;;;;;;;-1.81;100.00;103061.28;10581346;27;20430;-78
2024/01/27 01:12:31;;;;;;;16.57;6.40;;;;;;;-1.72;100.00;103055.50;10551412;27;20046;-77
2024/01/27 01:17:31;;;;;;;13.03;7.77;;;;;;;-1.68;100.00;103056.13;10547746;27;20152;-78
2024/01/27 01:22:32;;;;;;;14.33;9.23;;;;;;;-1.59;100.00;103052.94;10585132;27;20039;-78
2024/01/27 01:27:33;;;;;;;14.63;6.73;;;;;;;-1.65;100.00;103059.13;10567673;27;20118;-78
2024/01/27 01:32:33;;;;;;;10.93;6.27;;;;;;;-1.63;100.00;103061.88;10531012;28;20536;-80
2024/01/27 01:37:33;;;;;;;26.33;10.53;;;;;;;-1.72;100.00;103060.66;10529508;28;20122;-78
2024/01/27 01:42:34;;;;;;;16.90;9.70;;;;;;;-1.71;100.00;103062.50;10562239;27;20126;-77
2024/01/27 01:47:35;;;;;;;11.77;6.60;;;;;;;-1.53;100.00;103062.34;10569446;27;20122;-78
2024/01/27 01:52:36;;;;;;;14.83;6.77;;;;;;;-1.53;100.00;103058.88;10557072;27;20075;-78
2024/01/27 01:57:37;;;;;;;16.13;9.50;;;;;;;-1.63;100.00;103070.50;10551198;28;20047;-78
2024/01/27 02:02:37;;;;;;;14.70;6.83;;;;;;;-1.76;100.00;103069.59;10566016;28;20170;-78
2024/01/27 02:07:38;;;;;;;24.50;5.43;;;;;;;-1.71;100.00;103068.56;10594357;28;20059;-78
2024/01/27 02:12:39;;;;;;;13.20;6.03;;;;;;;-1.82;100.00;103082.53;10529242;28;20043;-78
2024/01/27 02:17:39;;;;;;;12.20;8.47;;;;;;;-1.78;100.00;103068.47;10550862;28;20118;-79
2024/01/27 02:22:40;;;;;;;12.87;8.23;;;;;;;-1.80;100.00;103073.41;10558895;27;20047;-80
2024/01/27 02:27:40;;;;;;;16.63;8.43;;;;;;;-1.84;100.00;103065.09;10551735;28;20116;-78
2024/01/27 02:38:15;;;;;;;18.05;8.40;;;;;;;-1.85;100.00;103069.28;10565432;28;20050;-78
2024/01/27 02:43:16;;;;;;;16.00;8.33;;;;;;;-1.94;100.00;103078.34;10577974;28;20041;-78
2024/01/27 02:48:16;;;;;;;26.80;8.67;;;;;;;-1.96;100.00;103080.72;10568392;28;20130;-77
2024/01/27 02:53:17;;;;;;;10.93;6.63;;;;;;;-1.98;100.00;103081.22;10538315;27;20553;-78
2024/01/27 02:58:17;;;;;;;24.33;9.33;;;;;;;-1.93;100.00;103073.44;10571076;27;20043;-77
2024/01/27 03:03:18;;;;;;;19.83;7.97;;;;;;;-1.96;100.00;103078.16;10556803;27;20118;-78
2024/01/27 03:08:19;;;;;;;20.30;7.03;;;;;;;-2.10;100.00;103073.72;10588766;27;20042;-78
2024/01/27 03:13:19;;;;;;;21.23;7.67;;;;;;;-2.28;100.00;103071.25;10582488;27;20118;-78
2024/01/27 03:18:20;;;;;;;21.90;8.73;;;;;;;-2.17;100.00;103075.28;10572637;27;20383;-78
2024/01/27 03:23:20;;;;;;;17.73;8.13;;;;;;;-2.16;100.00;103078.03;10576694;27;20048;-77
2024/01/27 03:28:21;;;;;;;21.00;8.20;;;;;;;-2.20;100.00;103073.19;10565349;27;20047;-78
2024/01/27 03:33:22;;;;;;;12.13;6.57;;;;;;;-2.18;100.00;103073.44;10578029;27;20071;-78
2024/01/27 03:38:23;;;;;;;13.68;7.90;;;;;;;-2.36;100.00;103078.84;10556458;27;20040;-78
2024/01/27 03:43:23;;;;;;;15.13;9.37;;;;;;;-2.40;100.00;103070.53;10533959;28;20063;-78
2024/01/27 03:48:24;;;;;;;14.87;8.93;;;;;;;-2.41;100.00;103072.16;10570608;27;20130;-78
2024/01/27 03:53:24;;;;;;;22.50;8.43;;;;;;;-2.33;100.00;103079.97;10551073;27;20546;-78
2024/01/27 03:58:25;;;;;;;16.73;10.20;;;;;;;-2.46;100.00;103072.28;10533205;27;20160;-78
2024/01/27 04:03:26;;;;;;;27.03;9.70;;;;;;;-2.64;100.00;103074.19;10541563;27;20383;-77
2024/01/27 04:08:26;;;;;;;12.73;7.57;;;;;;;-2.76;100.00;103078.53;10540494;27;20123;-78
2024/01/27 04:13:27;;;;;;;22.80;10.60;;;;;;;-2.74;100.00;103097.63;10564515;27;20469;-77
2024/01/27 04:18:27;;;;;;;19.27;7.77;;;;;;;-2.74;100.00;103097.63;10557759;27;20172;-78
2024/01/27 04:23:27;;;;;;;36.27;11.37;;;;;;;-2.77;100.00;103104.91;10551449;27;20036;-79
2024/01/27 04:28:30;;;;;;;14.40;8.70;;;;;;;-2.84;100.00;103103.16;10555892;27;20131;-79
2024/01/27 04:33:30;;;;;;;19.98;10.95;;;;;;;-2.88;100.00;103105.06;10576468;27;20032;-77
2024/01/27 04:38:31;;;;;;;17.73;8.10;;;;;;;-2.96;100.00;103102.38;10539869;27;20472;-79
2024/01/27 04:43:31;;;;;;;11.00;8.43;;;;;;;-2.99;100.00;103107.06;10575734;27;20046;-77
2024/01/27 04:48:32;;;;;;;23.40;10.73;;;;;;;-3.04;100.00;103108.06;10550478;28;20298;-78
2024/01/27 04:53:32;;;;;;;19.00;9.43;;;;;;;-3.19;100.00;103095.69;10507524;28;20042;-77
2024/01/27 04:58:34;;;;;;;27.93;9.27;;;;;;;-3.21;100.00;103100.63;10577629;27;20118;-77
2024/01/27 05:03:35;;;;;;;;;;;;;;;-3.19;100.00;103095.69;10566010;27;20031;-78
2024/01/27 05:08:36;;;;;;;20.00;10.43;;;;;;;-3.26;100.00;103092.28;10560067;27;19927;-78
2024/01/27 05:13:37;;;;;;;19.83;9.57;;;;;;;-3.22;100.00;103097.84;10517920;28;20125;-77
2024/01/27 05:18:38;;;;;;;15.15;9.52;;;;;;;-3.28;100.00;103097.94;10563605;27;20061;-77
2024/01/27 05:23:38;;;;;;;29.70;9.37;;;;;;;-3.22;100.00;103095.28;10556808;28;20419;-78
2024/01/27 05:28:39;;;;;;;13.90;7.13;;;;;;;-3.31;100.00;103088.16;10552069;27;20122;-78
2024/01/27 05:33:40;;;;;;;18.70;9.20;;;;;;;-3.36;100.00;103089.16;10578675;27;20410;-77
2024/01/27 05:38:40;;;;;;;24.80;8.43;;;;;;;-3.34;100.00;103085.19;10547027;28;20805;-79
2024/01/27 05:43:41;;;;;;;16.87;9.97;;;;;;;-3.32;100.00;103085.41;10548063;28;20135;-78
2024/01/27 05:48:41;;;;;;;18.83;11.63;;;;;;;-3.37;100.00;103092.44;10546088;28;20035;-78
2024/01/27 05:53:42;;;;;;;19.77;10.30;;;;;;;-3.36;100.00;103076.34;10518566;28;20127;-78
2024/01/27 05:58:42;;;;;;;20.63;11.90;;;;;;;-3.40;100.00;103089.44;10539513;28;20040;-78
2024/01/27 06:03:45;;;;;;;29.83;11.93;;;;;;;-3.46;100.00;103101.38;10517040;28;20056;-79
2024/01/27 06:08:46;;;;;;;21.50;10.35;;;;;;;-3.47;100.00;103103.03;10508860;28;20036;-78
2024/01/27 06:13:48;;;;;;;33.27;12.90;;;;;;;-3.36;100.00;103103.63;10515129;28;20154;-78
2024/01/27 06:18:49;;;;;;;24.60;12.82;;;;;;;-3.35;100.00;103114.06;10489843;28;20044;-77
2024/01/27 06:23:49;;;;;;;22.90;12.10;;;;;;;-3.44;100.00;103113.72;10453949;28;20040;-77
2024/01/27 06:28:49;;;;;;;31.97;17.17;;;;;;;-3.44;100.00;103116.28;10488245;28;20123;-78
2024/01/27 06:33:50;;;;;;;25.13;12.63;;;;;;;-3.36;100.00;103108.75;10494910;28;20051;-78
2024/01/27 06:38:51;;;;;;;23.73;12.47;;;;;;;-3.38;100.00;103111.06;10530286;28;20156;-78
2024/01/27 06:43:52;;;;;;;30.33;14.50;;;;;;;-3.45;100.00;103114.44;10518596;28;20040;-79
2024/01/27 06:48:52;;;;;;;24.87;15.70;;;;;;;-3.50;100.00;103104.22;10525234;28;20570;-78
2024/01/27 06:53:53;;;;;;;29.70;16.17;;;;;;;-3.50;100.00;103110.28;10546911;28;20047;-79
2024/01/27 06:58:53;;;;;;;25.13;15.93;;;;;;;-3.54;100.00;103113.13;10515278;28;20123;-80
2024/01/27 07:03:54;;;;;;;33.70;14.03;;;;;;;-3.45;100.00;103114.44;10539697;28;20193;-80
2024/01/27 07:08:54;;;;;;;43.60;16.20;;;;;;;-3.29;100.00;103111.44;10494831;28;20468;-79
2024/01/27 07:13:55;;;;;;;38.10;16.57;;;;;;;-3.30;100.00;103119.84;10537554;28;20078;-79
2024/01/27 07:18:56;;;;;;;38.30;17.45;;;;;;;-3.22;100.00;103116.72;10527897;28;20042;-80
2024/01/27 07:23:56;;;;;;;31.70;18.70;;;;;;;-3.09;100.00;103134.69;10542943;28;20042;-79
2024/01/27 07:28:57;;;;;;;42.23;15.27;;;;;;;-3.03;100.00;103140.66;10527714;28;20093;-79
2024/01/27 07:33:58;;;;;;;35.13;17.57;;;;;;;-3.13;100.00;103155.47;10519037;28;20186;-79
2024/01/27 07:38:59;;;;;;;35.40;19.80;;;;;;;-3.10;100.00;103155.91;10514721;28;20047;-79
2024/01/27 07:44:12;;;;;;;34.33;16.97;;;;;;;-2.95;100.00;103157.13;10524536;28;20274;-80
2024/01/27 07:49:14;;;;;;;25.60;18.77;;;;;;;-2.93;100.00;103165.94;10547053;28;20031;-79
2024/01/27 07:54:15;;;;;;;29.63;18.38;;;;;;;-2.74;100.00;103146.34;10556613;28;20040;-78
2024/01/27 07:59:15;;;;;;;25.77;18.13;;;;;;;-2.57;100.00;103155.41;10548616;28;20115;-79
2024/01/27 08:04:16;;;;;;;37.97;21.20;;;;;;;-2.18;100.00;103161.56;10548951;28;20184;-79
2024/01/27 08:09:17;;;;;;;42.00;19.90;;;;;;;-1.91;100.00;103168.59;10553045;28;20079;-79
2024/01/27 08:14:17;;;;;;;51.90;20.80;;;;;;;-1.79;100.00;103165.09;10535441;28;20476;-79
2024/01/27 08:19:20;;;;;;;45.57;20.93;;;;;;;-1.76;100.00;103164.59;10540405;28;20487;-80
2024/01/27 08:24:22;;;;;;;36.60;20.45;;;;;;;-1.72;100.00;103161.72;10549982;28;20048;-79
2024/01/27 08:29:23;;;;;;;34.42;20.00;;;;;;;-1.59;100.00;103150.53;10567464;28;20075;-79
2024/01/27 08:34:23;;;;;;;30.73;19.40;;;;;;;-1.65;100.00;103161.84;10542062;28;20134;-79
2024/01/27 08:39:24;;;;;;;54.80;21.13;;;;;;;-1.64;100.00;103161.13;10531088;28;20071;-78
2024/01/27 08:44:24;;;;;;;46.63;19.10;;;;;;;-1.59;100.00;103151.44;10541300;28;20463;-78
2024/01/27 08:49:25;;;;;;;23.83;18.77;;;;;;;-1.46;100.00;103158.22;10530505;28;20044;-78
2024/01/27 08:54:25;;;;;;;35.63;16.53;;;;;;;-1.38;100.00;103152.44;10531932;28;20044;-78
2024/01/27 08:59:26;;;;;;;40.80;18.90;;;;;;;-1.26;100.00;103163.44;10505572;28;20151;-79
2024/01/27 09:04:26;;;;;;;32.70;15.30;;;;;;;-0.99;100.00;103162.66;10516046;28;20036;-79
2024/01/27 09:09:28;;;;;;;34.13;18.77;;;;;;;-0.67;100.00;103153.97;10537377;28;20046;-79
2024/01/27 09:14:29;;;;;;;26.02;15.45;;;;;;;-0.51;100.00;103172.34;10506588;28;20087;-79
2024/01/27 09:19:29;;;;;;;38.07;18.87;;;;;;;0.01;100.00;103182.31;10505962;28;20440;-81
2024/01/27 09:24:30;;;;;;;30.90;15.80;;;;;;;0.47;100.00;103179.47;10524411;28;20054;-79
2024/01/27 09:29:30;;;;;;;24.20;13.70;;;;;;;0.79;100.00;103177.41;10522897;28;20067;-79
2024/01/27 09:34:31;;;;;;;35.60;16.33;;;;;;;1.04;100.00;103182.13;10505021;28;20105;-82
2024/01/27 09:39:31;;;;;;;26.48;13.45;;;;;;;1.48;100.00;103186.66;10521815;28;20170;-78
2024/01/27 09:44:32;;;;;;;24.80;12.63;;;;;;;1.84;100.00;103178.94;10505968;28;20506;-81
2024/01/27 09:49:32;;;;;;;17.98;9.10;;;;;;;2.22;100.00;103180.72;10513720;28;20039;-79
2024/01/27 09:54:33;;;;;;;15.50;8.02;;;;;;;2.58;100.00;103183.22;10546856;28;20527;-79
2024/01/27 09:59:34;;;;;;;16.20;8.13;;;;;;;2.94;100.00;103189.16;10551259;28;20123;-79
2024/01/27 10:04:34;;;;;;;17.23;7.50;;;;;;;3.37;100.00;103154.38;10534161;28;20063;-79
2024/01/27 10:09:35;;;;;;;9.18;4.63;;;;;;;3.49;100.00;103144.47;10542865;28;20067;-79
2024/01/27 10:14:42;;;;;;;15.30;7.70;;;;;;;3.20;100.00;103123.97;10540493;28;20040;-78
2024/01/27 10:19:42;;;;;;;11.50;6.30;;;;;;;3.53;100.00;103101.72;10570173;28;20082;-79
2024/01/27 10:24:43;;;;;;;18.33;6.38;;;;;;;4.06;100.00;103068.63;10577079;28;20118;-79
2024/01/27 10:29:55;;;;;;;18.88;5.68;;;;;;;5.17;100.00;103034.50;10578787;28;20086;-78
2024/01/27 10:35:05;;;;;;;14.93;5.45;;;;;;;6.23;100.00;103051.31;10544313;28;20028;-78
2024/01/27 10:40:10;;;;;;;11.48;6.10;;;;;;;8.30;100.00;103147.53;10543157;28;20478;-78
2024/01/27 10:45:10;;;;;;;15.82;6.47;;;;;;;10.36;100.00;103241.75;10554914;28;20051;-78
2024/01/27 10:50:11;;;;;;;13.60;6.07;;;;;;;11.90;100.00;103318.34;10511017;28;20036;-78
2024/01/27 10:55:26;;;;;;;8.23;4.85;;;;;;;12.38;100.00;103355.44;10533980;28;20197;-78
2024/01/27 11:00:26;;;;;;;10.38;5.13;;;;;;;11.84;100.00;103370.34;10502435;28;20044;-77
2024/01/27 11:05:28;;;;;;;10.30;5.28;;;;;;;11.45;100.00;103364.50;10516519;28;20122;-76
2024/01/27 11:10:35;;;;;;;12.70;4.57;;;;;;;10.94;100.00;103375.94;10517417;28;20040;-77
2024/01/27 11:15:36;;;;;;;14.35;5.00;;;;;;;10.95;100.00;103362.03;10500672;28;20114;-78
2024/01/27 11:20:37;;;;;;;11.30;5.95;;;;;;;9.84;100.00;103341.03;10526818;28;20043;-78
2024/01/27 11:25:37;;;;;;;10.73;5.85;;;;;;;8.91;100.00;103313.31;10473264;28;20036;-78
2024/01/27 11:30:39;;;;;;;9.90;4.57;;;;;;;7.99;100.00;103294.25;10515625;28;20080;-79
2024/01/27 11:35:40;;;;;;;10.73;5.30;;;;;;;8.17;100.00;103284.66;10515717;28;20377;-79
2024/01/27 11:40:47;;;;;;;15.55;6.00;;;;;;;8.41;100.00;103273.81;10528762;28;20036;-81
2024/01/27 11:45:57;;;;;;;10.73;5.53;;;;;;;9.01;100.00;103292.53;10491493;28;20032;-80
2024/01/27 11:51:05;;;;;;;9.18;4.10;;;;;;;8.29;100.00;103289.22;10547626;28;20047;-81
2024/01/27 11:56:06;;;;;;;20.40;6.22;;;;;;;7.69;100.00;103280.03;10549724;28;20035;-80
2024/01/27 12:01:09;;;;;;;7.25;3.20;;;;;;;8.33;100.00;103284.44;10550947;28;20169;-81
2024/01/27 12:06:09;;;;;;;9.18;4.10;;;;;;;8.88;100.00;103295.69;10566745;28;20055;-80
2024/01/27 12:11:10;;;;;;;8.95;3.97;;;;;;;9.05;100.00;103307.69;10532822;28;20126;-80
2024/01/27 12:16:10;;;;;;;10.05;3.65;;;;;;;9.81;100.00;103287.50;10566224;28;20145;-81
2024/01/27 12:21:11;;;;;;;10.40;4.00;;;;;;;9.69;100.00;103292.56;10533645;28;20122;-81
2024/01/27 12:26:14;;;;;;;13.60;4.30;;;;;;;9.43;100.00;103293.72;10550446;28;20052;-80
2024/01/27 12:31:17;;;;;;;4.25;2.88;;;;;;;9.39;100.00;103292.53;10549533;28;20035;-80
2024/01/27 12:36:21;;;;;;;8.02;3.20;;;;;;;9.40;100.00;103289.13;10532502;28;20510;-81
2024/01/27 12:41:21;;;;;;;9.23;3.33;;;;;;;9.95;100.00;103302.72;10548538;28;20043;-80
2024/01/27 12:46:22;;;;;;;10.45;3.63;;;;;;;10.50;100.00;103308.41;10531014;28;20075;-79
2024/01/27 12:51:24;;;;;;;7.53;3.30;;;;;;;11.04;100.00;103333.06;10566238;28;20055;-79
2024/01/27 12:56:24;;;;;;;9.30;3.88;;;;;;;10.70;100.00;103330.19;10531432;28;20047;-80
2024/01/27 13:01:25;;;;;;;10.15;2.88;;;;;;;10.26;100.00;103323.78;10548986;28;20043;-80
2024/01/27 13:06:26;;;;;;;6.97;3.13;;;;;;;9.33;100.00;103299.78;10566105;28;20135;-81
2024/01/27 13:11:27;;;;;;;5.57;2.58;;;;;;;9.44;100.00;103281.56;10546253;28;20089;-80
2024/01/27 13:16:27;;;;;;;15.30;5.28;;;;;;;9.81;100.00;103271.81;10546798;28;20424;-81
2024/01/27 13:21:28;;;;;;;7.20;2.80;;;;;;;10.19;100.00;103295.22;10566124;27;20423;-81
2024/01/27 13:26:28;;;;;;;8.55;3.65;;;;;;;10.46;100.00;103287.09;10528390;28;20130;-81
2024/01/27 13:31:29;;;;;;;7.57;2.72;;;;;;;10.35;100.00;103304.41;10546479;28;20044;-81
2024/01/27 13:36:29;;;;;;;8.52;4.47;;;;;;;10.55;100.00;103299.25;10566657;28;20042;-81
2024/01/27 13:41:30;;;;;;;11.90;4.00;;;;;;;10.83;100.00;103303.34;10563156;28;20106;-80
2024/01/27 13:46:31;;;;;;;12.45;2.75;;;;;;;11.05;100.00;103300.84;10537314;27;20059;-81
2024/01/27 13:51:31;;;;;;;10.18;2.85;;;;;;;11.24;100.00;103284.97;10547013;28;20123;-80
2024/01/27 13:56:32;;;;;;;9.35;3.45;;;;;;;11.39;100.00;103293.19;10545347;28;20391;-80
2024/01/27 14:01:33;;;;;;;10.23;3.15;;;;;;;11.37;100.00;103291.25;10564244;28;20101;-80
2024/01/27 14:06:34;;;;;;;9.45;2.25;;;;;;;11.26;100.00;103301.75;10546376;28;20115;-80
2024/01/27 14:11:34;;;;;;;10.48;2.92;;;;;;;11.24;100.00;103284.97;10547483;28;20042;-80
2024/01/27 14:16:35;;;;;;;11.57;3.90;;;;;;;10.40;100.00;103283.16;10529231;28;20575;-80
2024/01/27 14:21:36;;;;;;;10.95;3.97;;;;;;;9.44;100.00;103276.34;10562852;28;20118;-80
2024/01/27 14:26:37;;;;;;;10.60;5.00;;;;;;;8.57;100.00;103271.00;10546738;28;20088;-80
2024/01/27 14:31:38;;;;;;;9.13;4.13;;;;;;;7.68;100.00;103259.03;10545651;28;20035;-81
2024/01/27 14:36:39;;;;;;;7.05;3.50;;;;;;;7.25;100.00;103250.53;10565315;28;20182;-81
2024/01/27 14:41:39;;;;;;;8.95;2.88;;;;;;;6.94;100.00;103242.25;10545704;28;20042;-81
2024/01/27 14:46:40;;;;;;;7.72;3.05;;;;;;;6.51;100.00;103230.97;10545041;28;20051;-79
2024/01/27 14:51:41;;;;;;;12.07;2.78;;;;;;;6.13;100.00;103231.50;10568356;28;20122;-78
2024/01/27 14:56:41;;;;;;;10.00;3.17;;;;;;;5.68;100.00;103219.94;10553980;28;20064;-78
2024/01/27 15:01:41;;;;;;;7.55;2.15;;;;;;;5.16;100.00;103210.09;10551623;28;20122;-78
2024/01/27 15:06:42;;;;;;;9.43;4.32;;;;;;;4.75;100.00;103194.53;10552671;28;20070;-78
2024/01/27 15:11:42;;;;;;;7.72;2.00;;;;;;;4.36;100.00;103171.25;10551811;28;20053;-78
2024/01/27 15:16:44;;;;;;;12.25;2.85;;;;;;;4.07;100.00;103164.69;10552087;28;20116;-78
2024/01/27 15:21:45;;;;;;;8.80;3.80;;;;;;;3.79;100.00;103145.16;10553306;28;20035;-78
2024/01/27 15:26:46;;;;;;;6.90;2.97;;;;;;;3.49;100.00;103131.50;10569953;28;20027;-78
2024/01/27 15:31:46;;;;;;;7.97;2.72;;;;;;;3.26;100.00;103130.56;10549426;28;20039;-78
2024/01/27 15:36:47;;;;;;;8.55;2.83;;;;;;;3.02;100.00;103119.28;10569827;27;20918;-79
2024/01/27 15:41:47;;;;;;;9.30;3.30;;;;;;;2.79;100.00;103102.03;10552399;28;20067;-79
2024/01/27 15:46:48;;;;;;;8.23;2.50;;;;;;;2.54;100.00;103094.03;10550989;28;20163;-78
2024/01/27 15:51:48;;;;;;;9.38;2.75;;;;;;;2.41;100.00;103077.84;10550693;28;20043;-78
2024/01/27 15:56:49;;;;;;;10.00;3.40;;;;;;;2.30;100.00;103058.53;10571343;28;20038;-79
2024/01/27 16:01:50;;;;;;;5.35;2.40;;;;;;;2.15;100.00;103055.06;10551064;28;20127;-79
2024/01/27 16:06:50;;;;;;;5.07;2.53;;;;;;;2.04;100.00;103049.56;10534839;28;20069;-79
2024/01/27 16:11:54;;;;;;;8.70;2.97;;;;;;;1.87;100.00;103026.94;10568680;28;20118;-78
2024/01/27 16:16:54;;;;;;;10.13;2.72;;;;;;;1.67;100.00;103028.81;10550994;28;20474;-78
2024/01/27 16:21:55;;;;;;;8.95;3.63;;;;;;;1.45;100.00;103019.44;10565387;28;20114;-79
2024/01/27 16:26:56;;;;;;;11.47;3.27;;;;;;;1.31;100.00;103006.53;10550790;28;20036;-79
2024/01/27 16:31:56;;;;;;;9.50;3.88;;;;;;;1.20;100.00;103004.34;10522502;28;20300;-78
2024/01/27 16:36:57;;;;;;;8.38;3.17;;;;;;;1.09;100.00;102997.91;10563144;28;20127;-78
2024/01/27 16:41:58;;;;;;;8.95;3.03;;;;;;;1.01;100.00;102999.53;10585647;27;20072;-77
2024/01/27 16:46:58;;;;;;;5.78;3.78;;;;;;;0.86;100.00;102996.06;10560636;27;20634;-78
2024/01/27 16:51:59;;;;;;;6.75;3.80;;;;;;;0.74;100.00;102992.91;10585442;27;20130;-78
2024/01/27 16:56:59;;;;;;;10.80;3.20;;;;;;;0.58;100.00;102979.81;10562996;28;20071;-78
2024/01/27 17:02:00;;;;;;;3.13;2.17;;;;;;;0.44;100.00;102988.41;10546515;28;20540;-78
2024/01/27 17:07:00;;;;;;;8.27;3.80;;;;;;;0.23;100.00;102992.78;10566791;28;20460;-78
2024/01/27 17:12:01;;;;;;;8.23;2.50;;;;;;;0.07;100.00;102994.19;10547567;28;20118;-78
2024/01/27 17:17:01;;;;;;;9.50;4.60;;;;;;;0.03;100.00;103000.63;10513476;28;20039;-78
2024/01/27 17:22:03;;;;;;;11.83;4.17;;;;;;;0.12;100.00;103004.34;10566675;28;20129;-77
2024/01/27 17:27:04;;;;;;;15.77;3.42;;;;;;;0.11;100.00;102992.19;10530960;28;20124;-78
2024/01/27 17:32:04;;;;;;;17.23;5.87;;;;;;;0.00;100.00;102989.94;10565230;28;20066;-78
2024/01/27 17:37:05;;;;;;;8.10;3.40;;;;;;;-0.11;100.00;102992.84;10564711;28;20043;-78
2024/01/27 17:42:06;;;;;;;8.57;3.67;;;;;;;-0.12;100.00;102991.88;10565341;28;20127;-78
2024/01/27 17:47:08;;;;;;;10.50;3.90;;;;;;;-0.11;100.00;102998.88;10564254;28;20043;-77
2024/01/27 17:52:10;;;;;;;6.90;3.53;;;;;;;-0.08;100.00;103003.50;10548099;28;20052;-77
2024/01/27 17:57:10;;;;;;;19.35;5.80;;;;;;;-0.02;100.00;103006.84;10529516;28;20050;-77
2024/01/27 18:02:11;;;;;;;15.00;6.43;;;;;;;0.03;100.00;103016.06;10547632;28;20119;-78
2024/01/27 18:07:12;;;;;;;11.67;6.93;;;;;;;0.04;100.00;103010.19;10564071;28;20044;-78
2024/01/27 18:12:12;;;;;;;14.23;4.30;;;;;;;0.08;100.00;103011.47;10546484;28;20136;-78
2024/01/27 18:17:13;;;;;;;17.30;5.97;;;;;;;0.08;100.00;103011.47;10564178;28;20186;-79
2024/01/27 18:22:13;;;;;;;13.97;4.57;;;;;;;-0.02;100.00;103010.34;10546779;28;20114;-78
2024/01/27 18:27:16;;;;;;;18.37;6.73;;;;;;;-0.14;100.00;103018.19;10551061;28;20511;-78
2024/01/27 18:32:16;;;;;;;14.85;5.28;;;;;;;-0.24;100.00;103018.66;10538825;28;20043;-78
2024/01/27 18:37:17;;;;;;;20.83;5.10;;;;;;;-0.31;100.00;103038.50;10571820;28;20039;-78
2024/01/27 18:42:17;;;;;;;9.30;4.53;;;;;;;-0.25;100.00;103027.13;10553678;28;20111;-78
2024/01/27 18:47:18;;;;;;;15.30;5.27;;;;;;;-0.25;100.00;103038.34;10572105;28;20122;-77
2024/01/27 18:52:18;;;;;;;17.90;4.77;;;;;;;-0.34;100.00;103038.09;10538531;28;20028;-78
2024/01/27 18:57:19;;;;;;;11.50;6.67;;;;;;;-0.35;100.00;103041.41;10571147;27;20085;-78
2024/01/27 19:02:19;;;;;;;9.50;6.03;;;;;;;-0.34;100.00;103040.66;10554130;28;20042;-77
2024/01/27 19:07:20;;;;;;;10.43;4.83;;;;;;;-0.42;100.00;103043.94;10572630;28;20126;-78
2024/01/27 19:12:20;;;;;;;17.27;6.40;;;;;;;-0.47;100.00;103037.28;10551986;28;20547;-78
2024/01/27 19:17:21;;;;;;;8.30;4.57;;;;;;;-0.51;100.00;103028.25;10552435;28;20126;-78
2024/01/27 19:22:21;;;;;;;6.83;3.73;;;;;;;-0.57;100.00;103029.13;10553327;28;20032;-78
2024/01/27 19:27:22;;;;;;;11.20;6.30;;;;;;;-0.69;100.00;103023.34;10552515;28;20178;-78
2024/01/27 19:32:22;;;;;;;12.17;5.07;;;;;;;-0.83;100.00;103019.00;10570428;28;20116;-78
2024/01/27 19:37:23;;;;;;;9.10;6.00;;;;;;;-0.84;100.00;103018.09;10551890;28;20043;-78
2024/01/27 19:42:23;;;;;;;12.80;6.27;;;;;;;-0.98;100.00;103016.31;10552502;28;20040;-78
2024/01/27 19:47:24;;;;;;;9.60;4.73;;;;;;;-1.15;100.00;103013.19;10552500;28;20067;-78
2024/01/27 19:52:24;;;;;;;9.13;5.17;;;;;;;-1.31;100.00;103018.00;10551445;28;20122;-78
2024/01/27 19:57:25;;;;;;;12.47;6.90;;;;;;;-1.34;100.00;103003.09;10550935;28;20042;-78
2024/01/27 20:02:26;;;;;;;12.20;7.60;;;;;;;-1.40;100.00;103003.25;10551027;28;20067;-81
2024/01/27 20:07:26;;;;;;;21.37;7.83;;;;;;;-1.52;100.00;103000.00;10552144;28;20198;-78
2024/01/27 20:12:27;;;;;;;9.03;5.30;;;;;;;-1.70;100.00;102987.31;10568448;28;20508;-78
2024/01/27 20:17:28;;;;;;;8.33;5.90;;;;;;;-1.80;100.00;102985.19;10533846;28;20040;-77
2024/01/27 20:22:28;;;;;;;14.67;7.50;;;;;;;-1.86;100.00;102974.13;10551504;28;20506;-78
2024/01/27 20:27:29;;;;;;;18.50;9.30;;;;;;;-1.98;100.00;102974.34;10567531;28;20031;-78
2024/01/27 20:32:29;;;;;;;19.00;6.63;;;;;;;-2.03;100.00;102980.53;10550019;28;20074;-78
2024/01/27 20:37:30;;;;;;;12.97;7.73;;;;;;;-2.03;100.00;102965.13;10550046;28;20391;-78
2024/01/27 20:42:30;;;;;;;10.33;7.23;;;;;;;-1.95;100.00;102959.34;10566169;28;20158;-78
2024/01/27 20:47:31;;;;;;;21.63;10.53;;;;;;;-1.95;100.00;102966.13;10548710;28;20115;-78
2024/01/27 20:52:32;;;;;;;12.47;7.23;;;;;;;-1.92;100.00;102959.75;10549477;28;20368;-78
2024/01/27 20:57:32;;;;;;;10.73;6.00;;;;;;;-1.98;100.00;102952.88;10565392;28;20035;-78
2024/01/27 21:02:33;;;;;;;14.43;7.37;;;;;;;-2.06;100.00;102967.28;10548305;28;20134;-78
2024/01/27 21:07:33;;;;;;;15.93;7.17;;;;;;;-2.23;100.00;102972.72;10531016;28;20044;-78
2024/01/27 21:12:34;;;;;;;17.17;6.70;;;;;;;-2.39;100.00;102980.03;10565712;28;20143;-80
2024/01/27 21:17:34;;;;;;;13.00;6.73;;;;;;;-2.49;100.00;102964.16;10546951;28;20056;-77
2024/01/27 21:22:35;;;;;;;10.23;6.97;;;;;;;-2.47;100.00;102958.50;10564986;28;20081;-78
2024/01/27 21:27:36;;;;;;;12.70;7.23;;;;;;;-2.31;100.00;102966.59;10547393;28;20189;-77
2024/01/27 21:32:36;;;;;;;16.07;7.47;;;;;;;-2.23;100.00;102952.22;10565216;28;20058;-78
2024/01/27 21:37:37;;;;;;;27.60;11.00;;;;;;;-2.23;100.00;102952.22;10565853;28;20578;-77
2024/01/27 21:42:37;;;;;;;16.23;9.27;;;;;;;-2.25;100.00;102953.66;10512399;28;20130;-77
2024/01/27 21:47:38;;;;;;;13.83;6.60;;;;;;;-2.30;100.00;102946.97;10563817;28;20051;-78
2024/01/27 21:52:38;;;;;;;22.97;8.60;;;;;;;-2.43;100.00;102949.56;10565231;28;20581;-78
2024/01/27 21:57:39;;;;;;;11.63;7.33;;;;;;;-2.49;100.00;102951.31;10561812;28;20090;-79
2024/01/27 22:02:39;;;;;;;22.00;8.77;;;;;;;-2.46;100.00;102947.50;10565936;28;20063;-78
2024/01/27 22:07:40;;;;;;;13.60;8.77;;;;;;;-2.52;100.00;102937.38;10529255;28;20492;-78
2024/01/27 22:12:40;;;;;;;16.43;9.43;;;;;;;-2.60;100.00;102931.94;10547241;28;20043;-78
2024/01/27 22:17:41;;;;;;;19.90;11.97;;;;;;;-2.56;100.00;102917.16;10546645;28;20143;-81
2024/01/27 22:22:41;;;;;;;19.63;10.43;;;;;;;-2.43;100.00;102911.09;10566038;28;20135;-78
2024/01/27 22:27:43;;;;;;;17.50;10.63;;;;;;;-2.43;100.00;102896.63;10563413;28;20496;-78
2024/01/27 22:32:43;;;;;;;20.13;12.20;;;;;;;-2.45;100.00;102892.03;10546713;28;20048;-77
2024/01/27 22:37:44;;;;;;;16.93;13.13;;;;;;;-2.46;100.00;102896.22;10529391;28;20126;-78
2024/01/27 22:42:44;;;;;;;30.83;14.27;;;;;;;-2.63;100.00;102903.31;10565117;28;20106;-78